createdAt,value
2023-04-19T00:00:08.282Z,101758.81
2023-04-19T00:02:36.159Z,101762.44
2023-04-19T00:05:02.974Z,101763.50
2023-04-19T00:07:29.473Z,101760.72
2023-04-19T00:09:55.874Z,101760.94
2023-04-19T00:12:22.257Z,101759.88
2023-04-19T00:14:48.738Z,101759.44
2023-04-19T00:17:15.391Z,101754.75
2023-04-19T00:19:41.948Z,101759.63
2023-04-19T00:22:08.478Z,101750.50
2023-04-19T00:24:34.844Z,101749.84
2023-04-19T00:27:02.312Z,101755.16
2023-04-19T00:29:28.823Z,101743.47
2023-04-19T00:31:55.277Z,101735.38
2023-04-19T00:34:21.676Z,101742.16
2023-04-19T00:36:48.118Z,101745.31
2023-04-19T00:39:15.518Z,101742.31
2023-04-19T00:41:41.905Z,101738.69
2023-04-19T00:44:08.305Z,101734.44
2023-04-19T00:46:36.408Z,101734.88
2023-04-19T00:49:03.081Z,101738.25
2023-04-19T00:51:29.801Z,101736.94
2023-04-19T00:53:56.843Z,101736.50
2023-04-19T00:56:25.052Z,101732.25
2023-04-19T00:58:51.561Z,101724.78
2023-04-19T01:01:18.538Z,101733.91
2023-04-19T01:03:47.216Z,101728.34
2023-04-19T01:06:14.668Z,101731.72
2023-04-19T01:08:41.074Z,101721.06
2023-04-19T01:11:10.370Z,101723.59
2023-04-19T01:13:36.960Z,101719.72
2023-04-19T01:16:03.560Z,101734.16
2023-04-19T01:18:35.638Z,101723.31
2023-04-19T01:21:02.090Z,101727.13
2023-04-19T01:23:28.533Z,101718.81
2023-04-19T01:25:54.979Z,101726.94
2023-04-19T01:28:21.403Z,101724.34
2023-04-19T01:30:50.888Z,101714.38
2023-04-19T01:33:17.418Z,101707.34
2023-04-19T01:35:43.813Z,101713.94
2023-04-19T01:38:10.244Z,101709.66
2023-04-19T01:40:36.639Z,101710.06
2023-04-19T01:43:03.049Z,101719.63
2023-04-19T01:45:29.499Z,101710.91
2023-04-19T01:47:56.607Z,101710.44
2023-04-19T01:50:23.240Z,101710.19
2023-04-19T01:52:49.666Z,101708.03
2023-04-19T01:55:16.187Z,101703.34
2023-04-19T01:57:42.577Z,101703.75
2023-04-19T02:00:10.511Z,101696.06
2023-04-19T02:02:38.476Z,101699.84
2023-04-19T02:05:06.537Z,101701.19
2023-04-19T02:07:32.935Z,101693.94
2023-04-19T02:10:00.195Z,101689.81
2023-04-19T02:12:28.876Z,101687.19
2023-04-19T02:14:59.433Z,101690.94
2023-04-19T02:17:26.530Z,101683.22
2023-04-19T02:19:53.034Z,101677.19
2023-04-19T02:22:19.794Z,101686.84
2023-04-19T02:24:47.596Z,101685.44
2023-04-19T02:27:14.095Z,101701.41
2023-04-19T02:29:41.194Z,101689.03
2023-04-19T02:32:07.795Z,101692.09
2023-04-19T02:34:34.670Z,101688.78
2023-04-19T02:37:01.825Z,101688.22
2023-04-19T02:39:28.204Z,101697.84
2023-04-19T02:41:56.102Z,101688.81
2023-04-19T02:44:22.643Z,101685.94
2023-04-19T02:46:52.494Z,101688.59
2023-04-19T02:49:20.240Z,101703.13
2023-04-19T02:51:47.730Z,101692.88
2023-04-19T02:54:14.588Z,101690.22
2023-04-19T02:56:41.284Z,101700.94
2023-04-19T02:59:07.712Z,101697.88
2023-04-19T03:01:34.107Z,101694.50
2023-04-19T03:04:00.728Z,101695.22
2023-04-19T03:06:27.303Z,101693.88
2023-04-19T03:08:53.699Z,101686.41
2023-04-19T03:11:21.084Z,101688.66
2023-04-19T03:13:47.508Z,101690.94
2023-04-19T03:16:14.001Z,101685.13
2023-04-19T03:18:40.642Z,101693.28
2023-04-19T03:21:09.448Z,101687.97
2023-04-19T03:23:35.868Z,101686.63
2023-04-19T03:26:02.291Z,101688.03
2023-04-19T03:28:28.714Z,101693.72
2023-04-19T03:30:55.304Z,101695.81
2023-04-19T03:33:21.779Z,101697.00
2023-04-19T03:35:48.207Z,101694.47
2023-04-19T03:38:14.640Z,101693.59
2023-04-19T03:40:41.089Z,101694.47
2023-04-19T03:43:07.534Z,101696.19
2023-04-19T03:45:34.117Z,101680.91
2023-04-19T03:48:02.752Z,101676.81
2023-04-19T03:50:29.592Z,101680.78
2023-04-19T03:52:56.035Z,101682.88
2023-04-19T03:55:22.515Z,101682.88
2023-04-19T03:57:48.955Z,101681.53
2023-04-19T04:00:16.589Z,101680.69
2023-04-19T04:02:43.102Z,101673.47
2023-04-19T04:05:09.901Z,101673.47
2023-04-19T04:07:36.484Z,101681.88
2023-04-19T04:10:03.034Z,101675.91
2023-04-19T04:12:29.504Z,101685.19
2023-04-19T04:14:55.994Z,101684.50
2023-04-19T04:17:24.176Z,101689.34
2023-04-19T04:19:50.666Z,101681.66
2023-04-19T04:22:17.229Z,101690.06
2023-04-19T04:24:44.076Z,101689.56
2023-04-19T04:27:11.107Z,101692.50
2023-04-19T04:29:38.306Z,101695.81
2023-04-19T04:32:08.622Z,101698.06
2023-04-19T04:34:36.648Z,101697.72
2023-04-19T04:37:04.010Z,101703.59
2023-04-19T04:39:30.585Z,101697.63
2023-04-19T04:41:59.636Z,101702.25
2023-04-19T04:44:26.252Z,101693.50
2023-04-19T04:46:52.767Z,101695.59
2023-04-19T04:49:19.243Z,101701.25
2023-04-19T04:51:45.815Z,101692.16
2023-04-19T04:54:12.262Z,101694.06
2023-04-19T04:56:38.693Z,101694.06
2023-04-19T04:59:05.673Z,101698.34
2023-04-19T05:01:32.145Z,101703.63
2023-04-19T05:03:58.852Z,101697.13
2023-04-19T05:06:26.512Z,101702.59
2023-04-19T05:08:53.016Z,101695.41
2023-04-19T05:11:20.373Z,101694.38
2023-04-19T05:13:46.804Z,101701.59
2023-04-19T05:16:13.261Z,101692.97
2023-04-19T05:18:39.706Z,101689.88
2023-04-19T05:21:08.188Z,101701.16
2023-04-19T05:23:34.700Z,101700.81
2023-04-19T05:26:01.111Z,101691.16
2023-04-19T05:28:27.565Z,101693.38
2023-04-19T05:30:54.093Z,101697.28
2023-04-19T05:33:20.635Z,101696.56
2023-04-19T05:35:47.080Z,101692.03
2023-04-19T05:38:13.558Z,101695.56
2023-04-19T05:40:40.264Z,101688.47
2023-04-19T05:43:06.768Z,101681.22
2023-04-19T05:45:33.151Z,101683.19
2023-04-19T05:47:59.590Z,101692.78
2023-04-19T05:50:26.056Z,101688.47
2023-04-19T05:52:52.516Z,101679.63
2023-04-19T05:55:18.995Z,101678.91
2023-04-19T05:57:45.415Z,101680.25
2023-04-19T06:00:12.576Z,101674.38
2023-04-19T06:02:39.122Z,101675.69
2023-04-19T06:05:09.918Z,101675.31
2023-04-19T06:07:46.903Z,101678.72
2023-04-19T06:10:20.665Z,101684.53
2023-04-19T06:12:47.099Z,101674.84
2023-04-19T06:15:13.568Z,101680.66
2023-04-19T06:17:40.052Z,101690.03
2023-04-19T06:20:08.291Z,101679.97
2023-04-19T06:22:34.752Z,101680.06
2023-04-19T06:25:01.442Z,101678.94
2023-04-19T06:27:27.893Z,101686.41
2023-04-19T06:29:54.394Z,101680.19
2023-04-19T06:32:20.804Z,101693.00
2023-04-19T06:34:47.261Z,101687.38
2023-04-19T06:37:13.679Z,101679.00
2023-04-19T06:39:40.125Z,101680.78
2023-04-19T06:42:07.005Z,101688.28
2023-04-19T06:44:33.485Z,101686.66
2023-04-19T06:46:59.906Z,101685.69
2023-04-19T06:49:26.381Z,101689.53
2023-04-19T06:51:53.418Z,101685.19
2023-04-19T06:54:20.104Z,101682.69
2023-04-19T06:56:48.555Z,101677.03
2023-04-19T06:59:19.037Z,101681.78
2023-04-19T07:01:46.308Z,101673.75
2023-04-19T07:04:14.053Z,101673.00
2023-04-19T07:06:40.693Z,101664.03
2023-04-19T07:09:08.449Z,101667.53
2023-04-19T07:11:34.980Z,101668.84
2023-04-19T07:14:01.540Z,101657.69
2023-04-19T07:16:28.803Z,101663.88
2023-04-19T07:18:55.541Z,101660.38
2023-04-19T07:21:22.006Z,101660.69
2023-04-19T07:23:48.449Z,101657.34
2023-04-19T07:26:15.041Z,101643.84
2023-04-19T07:28:41.528Z,101641.34
2023-04-19T07:31:08.013Z,101638.59
2023-04-19T07:33:34.895Z,101636.78
2023-04-19T07:36:01.635Z,101640.22
2023-04-19T07:38:28.224Z,101626.75
2023-04-19T07:40:54.669Z,101632.91
2023-04-19T07:43:21.226Z,101620.88
2023-04-19T07:45:47.661Z,101627.47
2023-04-19T07:48:14.053Z,101621.97
2023-04-19T07:50:40.475Z,101625.16
2023-04-19T07:53:06.875Z,101616.28
2023-04-19T07:55:33.400Z,101613.72
2023-04-19T07:58:01.222Z,101598.38
2023-04-19T08:00:29.822Z,101593.28
2023-04-19T08:02:59.959Z,101596.25
2023-04-19T08:05:27.353Z,101602.41
2023-04-19T08:07:53.969Z,101600.91
2023-04-19T08:10:22.199Z,101603.69
2023-04-19T08:13:04.476Z,101594.97
2023-04-19T08:18:04.993Z,101600.47
2023-04-19T08:20:32.528Z,101598.78
2023-04-19T08:23:04.598Z,101595.81
2023-04-19T08:25:37.394Z,101600.47
2023-04-19T08:28:04.778Z,101605.97
2023-04-19T08:30:31.794Z,101598.09
2023-04-19T08:32:58.344Z,101595.28
2023-04-19T08:35:25.391Z,101592.06
2023-04-19T08:37:51.892Z,101586.72
2023-04-19T08:40:18.824Z,101581.53
2023-04-19T08:42:45.317Z,101577.66
2023-04-19T08:45:27.110Z,101571.63
2023-04-19T08:48:01.365Z,101568.59
2023-04-19T08:53:12.175Z,101564.25
2023-04-19T08:56:03.350Z,101561.22
2023-04-19T08:58:52.146Z,101562.03
2023-04-19T09:01:33.171Z,101552.59
2023-04-19T09:04:16.927Z,101547.63
2023-04-19T09:06:49.010Z,101541.88
2023-04-19T09:09:34.749Z,101544.34
2023-04-19T09:12:17.655Z,101542.66
2023-04-19T09:14:57.832Z,101545.13
2023-04-19T09:17:26.807Z,101540.38
2023-04-19T09:19:53.216Z,101536.44
2023-04-19T09:22:19.732Z,101539.78
2023-04-19T09:25:22.753Z,101525.16
2023-04-19T09:27:36.263Z,101526.81
2023-04-19T09:30:04.676Z,101535.69
2023-04-19T09:32:46.772Z,101532.63
2023-04-19T09:35:13.383Z,101531.03
2023-04-19T09:38:01.735Z,101532.91
2023-04-19T09:40:28.438Z,101525.03
2023-04-19T09:48:07.097Z,101520.03
2023-04-19T09:50:42.367Z,101515.50
2023-04-19T09:53:18.292Z,101511.22
2023-04-19T09:55:57.703Z,101513.31
2023-04-19T09:58:34.343Z,101504.50
2023-04-19T10:03:35.438Z,101494.31
2023-04-19T10:06:14.124Z,101496.56
2023-04-19T10:08:49.804Z,101499.25
2023-04-19T10:11:17.447Z,101502.03
2023-04-19T10:13:46.806Z,101490.19
2023-04-19T10:16:19.346Z,101493.59
2023-04-19T10:18:50.006Z,101491.53
2023-04-19T10:21:17.234Z,101492.38
2023-04-19T10:23:43.810Z,101467.91
2023-04-19T10:26:10.335Z,101465.03
2023-04-19T10:28:37.967Z,101467.97
2023-04-19T10:31:05.405Z,101459.53
2023-04-19T10:33:36.466Z,101466.84
2023-04-19T10:36:03.884Z,101463.66
2023-04-19T10:38:43.203Z,101471.78
2023-04-19T10:41:16.935Z,101461.78
2023-04-19T10:43:48.129Z,101464.47
2023-04-19T10:46:16.465Z,101465.13
2023-04-19T10:48:58.037Z,101458.81
2023-04-19T10:51:29.695Z,101452.47
2023-04-19T10:54:00.165Z,101443.47
2023-04-19T10:56:32.728Z,101433.53
2023-04-19T10:59:02.557Z,101449.78
2023-04-19T11:01:40.849Z,101447.34
2023-04-19T11:04:08.909Z,101426.09
2023-04-19T11:06:37.142Z,101432.16
2023-04-19T11:09:05.670Z,101430.59
2023-04-19T11:11:36.378Z,101426.53
2023-04-19T11:14:08.540Z,101422.78
2023-04-19T11:16:45.405Z,101414.91
2023-04-19T11:19:16.680Z,101401.41
2023-04-19T11:21:46.585Z,101408.81
2023-04-19T11:24:13.354Z,101402.69
2023-04-19T11:26:43.347Z,101397.72
2023-04-19T11:29:10.375Z,101395.84
2023-04-19T11:31:36.953Z,101403.16
2023-04-19T11:34:03.669Z,101404.91
2023-04-19T11:36:32.254Z,101391.53
2023-04-19T11:38:58.722Z,101382.84
2023-04-19T11:41:25.220Z,101382.09
2023-04-19T11:43:52.052Z,101376.03
2023-04-19T11:46:18.602Z,101373.59
2023-04-19T11:48:53.183Z,101373.31
2023-04-19T11:51:20.342Z,101376.75
2023-04-19T11:53:47.160Z,101366.78
2023-04-19T11:56:15.590Z,101359.56
2023-04-19T11:58:49.827Z,101351.84
2023-04-19T12:01:20.359Z,101356.06
2023-04-19T12:03:48.414Z,101356.13
2023-04-19T12:06:19.295Z,101347.97
2023-04-19T12:08:47.745Z,101352.72
2023-04-19T12:11:15.368Z,101348.63
2023-04-19T12:13:44.209Z,101349.69
2023-04-19T12:16:11.933Z,101352.25
2023-04-19T12:18:50.299Z,101362.03
2023-04-19T12:21:32.409Z,101343.31
2023-04-19T12:24:00.925Z,101337.13
2023-04-19T12:26:28.924Z,101335.72
2023-04-19T12:28:56.793Z,101335.13
2023-04-19T12:31:23.297Z,101340.19
2023-04-19T12:33:50.614Z,101335.13
2023-04-19T12:36:17.114Z,101347.78
2023-04-19T12:38:44.016Z,101336.31
2023-04-19T12:41:11.069Z,101333.53
2023-04-19T12:43:37.599Z,101340.00
2023-04-19T12:46:05.201Z,101323.81
2023-04-19T12:48:31.744Z,101318.75
2023-04-19T12:50:58.178Z,101321.84
2023-04-19T12:53:25.259Z,101308.94
2023-04-19T12:55:51.690Z,101309.50
2023-04-19T12:58:18.704Z,101322.97
2023-04-19T13:00:45.403Z,101307.81
2023-04-19T13:03:12.703Z,101305.28
2023-04-19T13:05:39.268Z,101294.91
2023-04-19T13:08:06.105Z,101303.63
2023-04-19T13:10:32.617Z,101300.25
2023-04-19T13:13:00.687Z,101298.00
2023-04-19T13:15:28.601Z,101277.81
2023-04-19T13:17:55.288Z,101268.81
2023-04-19T13:20:21.785Z,101273.59
2023-04-19T13:22:48.219Z,101266.59
2023-04-19T13:25:14.684Z,101264.06
2023-04-19T13:27:41.110Z,101264.34
2023-04-19T13:30:08.307Z,101264.63
2023-04-19T13:32:34.731Z,101255.06
2023-04-19T13:35:01.178Z,101246.09
2023-04-19T13:37:27.636Z,101247.75
2023-04-19T13:40:01.117Z,101258.69
2023-04-19T13:42:33.689Z,101245.50
2023-04-19T13:45:00.118Z,101240.19
2023-04-19T13:47:26.765Z,101238.81
2023-04-19T13:49:53.239Z,101239.94
2023-04-19T13:52:19.943Z,101228.69
2023-04-19T13:54:46.465Z,101216.31
2023-04-19T13:57:12.896Z,101231.78
2023-04-19T13:59:39.265Z,101225.31
2023-04-19T14:02:05.803Z,101215.44
2023-04-19T14:04:33.113Z,101218.25
2023-04-19T14:06:59.549Z,101222.44
2023-04-19T14:09:26.043Z,101222.88
2023-04-19T14:11:52.485Z,101218.56
2023-04-19T14:14:19.014Z,101228.56
2023-04-19T14:16:45.802Z,101210.53
2023-04-19T14:19:12.303Z,101206.34
2023-04-19T14:21:38.812Z,101195.97
2023-04-19T14:24:05.873Z,101196.81
2023-04-19T14:26:32.271Z,101207.06
2023-04-19T14:28:58.723Z,101200.72
2023-04-19T14:31:25.211Z,101188.66
2023-04-19T14:33:52.126Z,101194.25
2023-04-19T14:36:18.489Z,101190.28
2023-04-19T14:38:44.899Z,101185.16
2023-04-19T14:41:11.290Z,101180.50
2023-04-19T14:43:37.668Z,101179.06
2023-04-19T14:46:04.134Z,101182.00
2023-04-19T14:48:30.686Z,101196.53
2023-04-19T14:50:57.090Z,101170.28
2023-04-19T14:53:23.707Z,101187.09
2023-04-19T14:55:50.103Z,101173.84
2023-04-19T14:58:16.538Z,101173.66
2023-04-19T15:00:44.413Z,101166.00
2023-04-19T15:03:10.989Z,101165.88
2023-04-19T15:05:37.747Z,101159.66
2023-04-19T15:08:04.440Z,101172.56
2023-04-19T15:10:30.970Z,101175.66
2023-04-19T15:12:58.039Z,101176.03
2023-04-19T15:15:24.473Z,101182.16
2023-04-19T15:17:51.217Z,101170.63
2023-04-19T15:20:17.727Z,101184.84
2023-04-19T15:22:44.134Z,101180.50
2023-04-19T15:25:10.676Z,101179.75
2023-04-19T15:27:37.269Z,101177.69
2023-04-19T15:30:04.790Z,101183.47
2023-04-19T15:32:34.207Z,101180.66
2023-04-19T15:35:00.739Z,101190.47
2023-04-19T15:37:27.528Z,101175.72
2023-04-19T15:39:53.965Z,101175.13
2023-04-19T15:42:20.337Z,101176.13
2023-04-19T15:44:46.752Z,101170.59
2023-04-19T15:47:13.218Z,101176.03
2023-04-19T15:49:40.673Z,101179.94
2023-04-19T15:52:08.685Z,101173.16
2023-04-19T15:54:37.631Z,101166.28
2023-04-19T15:57:04.061Z,101182.13
2023-04-19T15:59:31.523Z,101182.16
2023-04-19T16:01:58.191Z,101182.09
2023-04-19T16:04:24.848Z,101176.66
2023-04-19T16:06:51.821Z,101171.28
2023-04-19T16:09:19.342Z,101180.94
2023-04-19T16:11:45.870Z,101187.19
2023-04-19T16:14:12.313Z,101195.03
2023-04-19T16:16:38.727Z,101196.66
2023-04-19T16:19:05.190Z,101200.63
2023-04-19T16:21:31.827Z,101199.84
2023-04-19T16:23:58.489Z,101200.50
2023-04-19T16:26:24.923Z,101194.97
2023-04-19T16:28:51.407Z,101187.16
2023-04-19T16:31:18.168Z,101191.41
2023-04-19T16:33:44.779Z,101195.03
2023-04-19T16:36:11.307Z,101197.13
2023-04-19T16:38:37.737Z,101199.22
2023-04-19T16:41:05.831Z,101203.81
2023-04-19T16:43:32.583Z,101207.53
2023-04-19T16:45:59.061Z,101215.09
2023-04-19T16:48:26.192Z,101211.53
2023-04-19T16:50:52.605Z,101209.31
2023-04-19T16:53:19.693Z,101215.03
2023-04-19T16:55:46.188Z,101216.66
2023-04-19T16:58:12.558Z,101215.50
2023-04-19T17:00:38.975Z,101214.53
2023-04-19T17:03:06.006Z,101216.94
2023-04-19T17:05:32.477Z,101223.38
2023-04-19T17:07:58.869Z,101220.38
2023-04-19T17:10:26.938Z,101221.91
2023-04-19T17:12:55.749Z,101222.59
2023-04-19T17:15:22.286Z,101219.06
2023-04-19T17:17:48.739Z,101216.09
2023-04-19T17:20:15.378Z,101210.34
2023-04-19T17:22:41.818Z,101211.00
2023-04-19T17:25:08.566Z,101211.50
2023-04-19T17:27:34.978Z,101228.75
2023-04-19T17:30:01.439Z,101215.22
2023-04-19T17:32:27.882Z,101220.31
2023-04-19T17:34:54.357Z,101218.53
2023-04-19T17:37:20.931Z,101222.22
2023-04-19T17:39:47.340Z,101225.63
2023-04-19T17:42:13.853Z,101221.38
2023-04-19T17:44:40.313Z,101216.53
2023-04-19T17:47:06.858Z,101212.97
2023-04-19T17:49:33.276Z,101229.56
2023-04-19T17:51:59.645Z,101221.28
2023-04-19T17:54:26.085Z,101227.41
2023-04-19T17:56:52.829Z,101222.66
2023-04-19T17:59:19.492Z,101233.13
2023-04-19T18:01:46.097Z,101233.31
2023-04-19T18:04:17.195Z,101240.34
2023-04-19T18:06:43.870Z,101237.31
2023-04-19T18:09:10.354Z,101235.34
2023-04-19T18:11:36.792Z,101237.38
2023-04-19T18:14:03.182Z,101243.53
2023-04-19T18:16:29.619Z,101245.47
2023-04-19T18:18:56.298Z,101256.72
2023-04-19T18:21:22.764Z,101255.28
2023-04-19T18:23:49.144Z,101255.97
2023-04-19T18:26:15.566Z,101251.09
2023-04-19T18:28:41.980Z,101265.69
2023-04-19T18:31:09.549Z,101262.56
2023-04-19T18:33:36.485Z,101264.00
2023-04-19T18:36:04.670Z,101269.28
2023-04-19T18:38:31.500Z,101270.69
2023-04-19T18:40:58.764Z,101272.09
2023-04-19T18:43:26.148Z,101267.94
2023-04-19T18:45:54.669Z,101271.88
2023-04-19T18:48:22.448Z,101272.44
2023-04-19T18:50:48.919Z,101271.50
2023-04-19T18:53:15.336Z,101277.34
2023-04-19T18:55:42.014Z,101280.41
2023-04-19T18:58:08.868Z,101279.25
2023-04-19T19:00:35.302Z,101281.28
2023-04-19T19:03:03.401Z,101284.81
2023-04-19T19:05:30.713Z,101289.84
2023-04-19T19:07:57.553Z,101296.38
2023-04-19T19:12:52.981Z,101307.03
2023-04-19T19:15:19.579Z,101305.63
2023-04-19T19:17:49.303Z,101309.53
2023-04-19T19:20:16.776Z,101305.34
2023-04-19T19:22:43.408Z,101323.66
2023-04-19T19:25:11.767Z,101316.03
2023-04-19T19:27:38.803Z,101316.72
2023-04-19T19:30:07.944Z,101313.34
2023-04-19T19:32:34.746Z,101319.75
2023-04-19T19:35:06.216Z,101310.22
2023-04-19T19:37:35.330Z,101316.59
2023-04-19T19:40:05.139Z,101314.47
2023-04-19T19:42:33.819Z,101317.25
2023-04-19T19:45:00.495Z,101326.78
2023-04-19T19:47:31.476Z,101331.88
2023-04-19T19:52:28.358Z,101329.28
2023-04-19T19:54:54.803Z,101334.38
2023-04-19T19:58:14.300Z,101338.38
2023-04-19T20:00:28.120Z,101341.94
2023-04-19T20:02:58.861Z,101336.38
2023-04-19T20:05:26.342Z,101335.06
2023-04-19T20:08:05.699Z,101339.25
2023-04-19T20:10:32.498Z,101346.41
2023-04-19T20:12:58.950Z,101342.31
2023-04-19T20:15:25.659Z,101344.38
2023-04-19T20:17:52.209Z,101348.16
2023-04-19T20:20:18.670Z,101348.97
2023-04-19T20:22:45.372Z,101347.03
2023-04-19T20:25:13.158Z,101356.28
2023-04-19T20:27:39.681Z,101352.44
2023-04-19T20:30:09.203Z,101352.66
2023-04-19T20:32:42.050Z,101359.38
2023-04-19T20:35:12.022Z,101360.00
2023-04-19T20:37:42.690Z,101359.56
2023-04-19T20:40:12.189Z,101362.03
2023-04-19T20:42:38.779Z,101353.72
2023-04-19T20:45:10.449Z,101358.94
2023-04-19T20:47:38.327Z,101359.28
2023-04-19T20:50:06.966Z,101360.28
2023-04-19T20:52:34.144Z,101357.00
2023-04-19T20:55:00.975Z,101365.00
2023-04-19T20:57:27.549Z,101365.56
2023-04-19T20:59:53.990Z,101359.34
2023-04-19T21:02:20.458Z,101362.25
2023-04-19T21:04:47.120Z,101357.91
2023-04-19T21:07:13.679Z,101364.56
2023-04-19T21:09:41.422Z,101363.44
2023-04-19T21:12:07.875Z,101367.16
2023-04-19T21:14:34.292Z,101366.00
2023-04-19T21:17:02.104Z,101355.81
2023-04-19T21:19:28.936Z,101358.28
2023-04-19T21:21:55.747Z,101356.97
2023-04-19T21:24:22.308Z,101355.19
2023-04-19T21:26:48.824Z,101352.31
2023-04-19T21:29:15.787Z,101354.81
2023-04-19T21:31:42.564Z,101354.72
2023-04-19T21:34:09.044Z,101350.38
2023-04-19T21:36:35.485Z,101352.00
2023-04-19T21:39:01.875Z,101352.72
2023-04-19T21:41:28.270Z,101349.72
2023-04-19T21:43:54.698Z,101349.41
2023-04-19T21:46:21.301Z,101349.31
2023-04-19T21:48:47.776Z,101350.75
2023-04-19T21:51:14.279Z,101348.69
2023-04-19T21:53:40.727Z,101348.41
2023-04-19T21:56:07.359Z,101349.81
2023-04-19T21:58:33.734Z,101351.78
2023-04-19T22:01:00.212Z,101350.44
2023-04-19T22:03:27.001Z,101343.63
2023-04-19T22:05:53.517Z,101342.28
2023-04-19T22:08:21.895Z,101339.94
2023-04-19T22:10:50.452Z,101339.28
2023-04-19T22:13:17.601Z,101339.66
2023-04-19T22:15:44.075Z,101341.22
2023-04-19T22:18:10.491Z,101338.00
2023-04-19T22:20:38.377Z,101345.75
2023-04-19T22:23:04.947Z,101334.31
2023-04-19T22:25:31.362Z,101330.91
2023-04-19T22:27:57.874Z,101335.03
2023-04-19T22:30:24.449Z,101319.16
2023-04-19T22:32:51.133Z,101315.94
2023-04-19T22:35:17.646Z,101317.97
2023-04-19T22:37:44.089Z,101321.09
2023-04-19T22:40:11.050Z,101311.72
2023-04-19T22:42:37.474Z,101309.38
2023-04-19T22:45:04.330Z,101310.94
2023-04-19T22:47:32.264Z,101307.88
2023-04-19T22:49:58.860Z,101301.09
2023-04-19T22:52:25.791Z,101304.16
2023-04-19T22:54:52.268Z,101291.88
2023-04-19T22:57:18.669Z,101299.06
2023-04-19T22:59:45.020Z,101285.56
2023-04-19T23:02:11.624Z,101280.25
2023-04-19T23:04:38.209Z,101284.38
2023-04-19T23:07:04.857Z,101283.72
2023-04-19T23:09:31.290Z,101276.72
2023-04-19T23:12:00.785Z,101283.03
2023-04-19T23:14:28.349Z,101278.09
2023-04-19T23:16:55.011Z,101269.91
2023-04-19T23:19:22.780Z,101270.75
2023-04-19T23:21:50.418Z,101264.78
2023-04-19T23:24:17.570Z,101261.56
2023-04-19T23:26:44.066Z,101259.56
2023-04-19T23:29:10.532Z,101255.66
2023-04-19T23:31:37.079Z,101263.56
2023-04-19T23:34:03.582Z,101265.13
2023-04-19T23:36:30.069Z,101261.22
2023-04-19T23:38:56.545Z,101259.03
2023-04-19T23:41:22.987Z,101260.59
2023-04-19T23:43:49.400Z,101257.34
2023-04-19T23:46:15.904Z,101253.63
2023-04-19T23:48:42.464Z,101255.22
2023-04-19T23:51:08.866Z,101244.13
2023-04-19T23:53:35.289Z,101241.06
2023-04-19T23:56:01.759Z,101242.63
2023-04-19T23:58:28.163Z,101247.59
